Time;durP1;ratioP1;P1;durP2;ratioP2;P2;SDS_P1;SDS_P2;PMS_P1;PMS_P2;Temp;Humidity;BMP_temperature;BMP_pressure;BME280_temperature;BME280_humidity;BME280_pressure;Samples;Min_cycle;Max_cycle;Signal;HPM_P1;HPM_P2
2024/03/27 00:01:10;;;;;;;5.43;2.10;;;;;;;11.00;100.00;98524.88;5090018;28;20083;-39
2024/03/27 00:03:36;;;;;;;5.30;2.25;;;;;;;10.95;100.00;98518.72;5089895;28;20302;-39
2024/03/27 00:06:04;;;;;;;5.93;2.28;;;;;;;11.00;100.00;98522.16;5081206;28;20056;-39
2024/03/27 00:08:29;;;;;;;3.00;1.75;;;;;;;10.98;100.00;98521.66;5076659;28;20111;-40
2024/03/27 00:10:54;;;;;;;7.15;2.60;;;;;;;10.93;100.00;98512.78;5075742;28;20116;-40
2024/03/27 00:13:19;;;;;;;6.33;2.60;;;;;;;10.95;100.00;98514.13;5075950;28;20074;-39
2024/03/27 00:15:52;;;;;;;4.63;1.97;;;;;;;10.96;100.00;98515.72;5076000;28;20086;-39
2024/03/27 00:18:17;;;;;;;4.47;2.15;;;;;;;10.91;100.00;98515.78;5075839;28;20702;-39
2024/03/27 00:20:43;;;;;;;6.38;2.28;;;;;;;10.92;100.00;98520.09;5076142;28;20032;-39
2024/03/27 00:23:08;;;;;;;5.25;2.38;;;;;;;10.91;100.00;98512.28;5075795;28;20132;-39
2024/03/27 00:25:33;;;;;;;6.73;2.40;;;;;;;10.91;100.00;98515.00;5075602;28;20088;-39
2024/03/27 00:27:59;;;;;;;5.15;2.55;;;;;;;10.89;100.00;98509.88;5076469;28;20086;-39
2024/03/27 00:30:24;;;;;;;8.73;2.97;;;;;;;10.86;100.00;98496.94;5076259;28;20028;-39
2024/03/27 00:32:49;;;;;;;7.40;2.00;;;;;;;10.83;100.00;98495.63;5075897;28;20457;-38
2024/03/27 00:35:15;;;;;;;6.10;2.47;;;;;;;10.77;100.00;98491.34;5076107;28;20286;-39
2024/03/27 00:37:40;;;;;;;6.30;2.30;;;;;;;10.77;100.00;98494.06;5076128;28;20035;-39
2024/03/27 00:40:08;;;;;;;6.73;2.47;;;;;;;10.70;100.00;98490.91;5076186;28;20305;-39
2024/03/27 00:42:34;;;;;;;8.30;2.35;;;;;;;10.65;100.00;98495.56;5075919;28;20360;-39
2024/03/27 00:45:00;;;;;;;5.03;2.30;;;;;;;10.59;100.00;98489.44;5075197;28;20021;-38
2024/03/27 00:47:25;;;;;;;;;;;;;;;10.66;100.00;98497.19;5075780;28;20126;-39
2024/03/27 00:49:51;;;;;;;7.63;2.63;;;;;;;10.45;100.00;98483.91;5076136;28;19908;-39
2024/03/27 00:52:16;;;;;;;10.07;3.10;;;;;;;10.42;100.00;98481.78;5075258;28;20059;-39
2024/03/27 00:54:41;;;;;;;5.80;2.70;;;;;;;10.39;100.00;98484.22;5075555;28;20453;-39
2024/03/27 00:57:07;;;;;;;4.80;2.77;;;;;;;10.29;100.00;98477.03;5075780;28;20086;-40
2024/03/27 00:59:32;;;;;;;7.30;2.30;;;;;;;10.32;100.00;98495.38;5075243;28;20259;-39
2024/03/27 01:01:58;;;;;;;4.53;2.45;;;;;;;10.23;100.00;98478.16;5075604;28;20511;-39
2024/03/27 01:04:23;;;;;;;5.20;2.43;;;;;;;10.20;100.00;98487.66;5074871;28;20032;-39
2024/03/27 01:06:48;;;;;;;3.90;2.30;;;;;;;10.17;100.00;98480.13;5075062;28;20059;-39
2024/03/27 01:09:14;;;;;;;6.33;2.13;;;;;;;10.11;100.00;98469.66;5074733;28;20086;-38
2024/03/27 01:11:39;;;;;;;4.07;2.88;;;;;;;10.09;100.00;98469.94;5074896;28;20089;-38
2024/03/27 01:14:05;;;;;;;5.30;2.43;;;;;;;10.14;100.00;98472.56;5075647;28;20028;-39
2024/03/27 01:16:30;;;;;;;4.47;2.50;;;;;;;10.09;100.00;98480.72;5074453;28;20035;-39
2024/03/27 01:18:55;;;;;;;5.77;2.37;;;;;;;10.05;100.00;98472.41;5074580;28;20052;-40
2024/03/27 01:21:21;;;;;;;5.53;2.90;;;;;;;10.04;100.00;98478.88;5074743;28;20063;-39
2024/03/27 01:23:46;;;;;;;4.60;2.50;;;;;;;10.04;100.00;98469.97;5075209;28;20070;-39
2024/03/27 01:26:11;;;;;;;6.50;2.90;;;;;;;10.01;100.00;98467.88;5074658;28;20275;-39
2024/03/27 01:28:37;;;;;;;4.00;2.53;;;;;;;9.93;100.00;98455.78;5074641;28;20115;-39
2024/03/27 01:31:03;;;;;;;7.57;2.53;;;;;;;9.95;100.00;98474.38;5074532;28;20032;-39
2024/03/27 01:33:28;;;;;;;5.93;2.47;;;;;;;9.89;100.00;98464.72;5075009;28;20487;-40
2024/03/27 01:35:54;;;;;;;8.13;2.80;;;;;;;9.90;100.00;98469.84;5074998;28;20039;-38
2024/03/27 01:38:19;;;;;;;5.70;2.50;;;;;;;9.85;100.00;98479.88;5074388;28;20035;-39
2024/03/27 01:40:44;;;;;;;5.13;2.63;;;;;;;9.82;100.00;98464.25;5074054;28;20031;-39
2024/03/27 01:43:10;;;;;;;6.60;2.53;;;;;;;9.80;100.00;98461.81;5074081;28;20056;-39
2024/03/27 01:45:36;;;;;;;8.75;2.72;;;;;;;9.78;100.00;98464.03;5074816;28;20063;-38
2024/03/27 01:48:02;;;;;;;4.93;2.75;;;;;;;9.75;100.00;98451.06;5074168;28;20090;-38
2024/03/27 01:50:29;;;;;;;6.47;2.53;;;;;;;9.67;100.00;98449.81;5074677;28;20031;-39
2024/03/27 01:52:57;;;;;;;3.70;2.42;;;;;;;9.66;100.00;98437.41;5073996;28;20024;-39
2024/03/27 01:55:22;;;;;;;4.75;2.53;;;;;;;9.58;100.00;98421.81;5075000;28;20526;-39
2024/03/27 01:57:48;;;;;;;3.33;2.22;;;;;;;9.65;100.00;98429.59;5073643;28;20025;-39
2024/03/27 02:00:14;;;;;;;5.28;2.30;;;;;;;9.63;100.00;98442.56;5074554;28;20082;-39
2024/03/27 02:02:40;;;;;;;4.30;2.58;;;;;;;9.60;100.00;98440.44;5073875;28;20032;-39
2024/03/27 02:05:07;;;;;;;6.28;2.50;;;;;;;9.57;100.00;98432.91;5073895;28;20064;-39
2024/03/27 02:07:32;;;;;;;7.15;2.53;;;;;;;9.53;100.00;98419.97;5074150;28;20099;-39
2024/03/27 02:09:58;;;;;;;4.15;2.63;;;;;;;9.53;100.00;98422.69;5073820;28;20170;-39
2024/03/27 02:12:24;;;;;;;5.65;2.55;;;;;;;9.48;100.00;98425.41;5073735;28;20025;-39
2024/03/27 02:14:49;;;;;;;5.10;3.08;;;;;;;9.52;100.00;98418.38;5073738;28;20483;-39
2024/03/27 02:17:15;;;;;;;5.20;2.28;;;;;;;9.51;100.00;98416.75;5074209;28;20028;-39
2024/03/27 02:19:41;;;;;;;7.03;2.70;;;;;;;9.49;100.00;98405.44;5073951;28;20385;-39
2024/03/27 02:22:06;;;;;;;4.05;2.20;;;;;;;9.51;100.00;98411.34;5073649;28;20113;-39
2024/03/27 02:24:49;;;;;;;5.68;2.50;;;;;;;9.45;100.00;98398.19;5073945;28;20039;-39
2024/03/27 02:27:14;;;;;;;6.90;3.22;;;;;;;9.50;100.00;98408.94;5073827;28;20031;-39
2024/03/27 02:29:40;;;;;;;6.18;2.30;;;;;;;9.52;100.00;98407.59;5073553;28;20423;-39
2024/03/27 02:32:05;;;;;;;3.87;2.20;;;;;;;9.47;100.00;98414.91;5074235;28;20115;-39
2024/03/27 02:34:30;;;;;;;7.50;2.70;;;;;;;9.49;100.00;98418.13;5073741;28;20283;-39
2024/03/27 02:36:56;;;;;;;7.60;2.53;;;;;;;9.44;100.00;98410.06;5074040;28;20266;-39
2024/03/27 02:39:21;;;;;;;6.33;2.80;;;;;;;9.49;100.00;98418.94;5073991;28;20097;-39
2024/03/27 02:41:46;;;;;;;4.07;2.57;;;;;;;9.50;100.00;98407.03;5073155;28;20117;-39
2024/03/27 02:44:12;;;;;;;6.63;2.80;;;;;;;9.47;100.00;98402.22;5073704;28;20486;-38
2024/03/27 02:46:37;;;;;;;6.60;2.77;;;;;;;9.45;100.00;98393.59;5073408;28;20028;-39
2024/03/27 02:49:02;;;;;;;4.97;3.17;;;;;;;9.45;100.00;98390.91;5073405;28;20115;-39
2024/03/27 02:51:28;;;;;;;6.00;2.72;;;;;;;9.46;100.00;98392.50;5073043;28;20066;-39
2024/03/27 02:53:53;;;;;;;6.43;2.90;;;;;;;9.41;100.00;98384.47;5073087;28;20139;-38
2024/03/27 02:56:18;;;;;;;8.03;3.10;;;;;;;9.48;100.00;98393.03;5073021;28;20044;-38
2024/03/27 02:58:44;;;;;;;7.27;2.67;;;;;;;9.45;100.00;98393.59;5073561;28;20128;-38
2024/03/27 03:01:09;;;;;;;7.07;2.73;;;;;;;9.45;100.00;98395.50;5073000;28;20031;-39
2024/03/27 03:03:34;;;;;;;5.53;2.70;;;;;;;9.39;100.00;98402.03;5073779;28;20624;-38
2024/03/27 03:06:00;;;;;;;4.03;2.43;;;;;;;9.47;100.00;98404.94;5072954;28;20491;-38
2024/03/27 03:08:25;;;;;;;6.47;2.70;;;;;;;9.48;100.00;98411.13;5073491;28;20259;-40
2024/03/27 03:10:53;;;;;;;6.70;2.87;;;;;;;9.47;100.00;98409.53;5073441;28;20034;-40
2024/03/27 03:13:19;;;;;;;4.65;2.75;;;;;;;9.48;100.00;98411.94;5073054;28;20031;-38
2024/03/27 03:15:44;;;;;;;4.95;2.60;;;;;;;9.49;100.00;98420.81;5073075;28;20028;-39
2024/03/27 03:18:10;;;;;;;4.73;2.50;;;;;;;9.43;100.00;98414.66;5073682;28;20028;-39
2024/03/27 03:20:36;;;;;;;5.55;2.83;;;;;;;9.52;100.00;98418.38;5073375;28;20025;-40
2024/03/27 03:23:02;;;;;;;4.97;2.38;;;;;;;9.55;100.00;98427.78;5073303;28;20021;-39
2024/03/27 03:25:27;;;;;;;4.65;2.28;;;;;;;9.56;100.00;98437.47;5073320;28;20085;-39
2024/03/27 03:27:52;;;;;;;5.80;2.97;;;;;;;9.50;100.00;98435.91;5073056;28;20029;-39
2024/03/27 03:30:18;;;;;;;5.33;2.33;;;;;;;9.54;100.00;98443.16;5073254;28;20024;-39
2024/03/27 03:32:43;;;;;;;3.90;2.57;;;;;;;9.54;100.00;98432.38;5072739;28;20487;-39
2024/03/27 03:35:10;;;;;;;4.17;2.27;;;;;;;9.63;100.00;98445.25;5072820;28;20420;-40
2024/03/27 03:37:36;;;;;;;4.85;1.98;;;;;;;9.60;100.00;98438.53;5072523;28;20028;-39
2024/03/27 03:40:03;;;;;;;3.83;2.20;;;;;;;9.61;100.00;98426.63;5073502;28;20044;-39
2024/03/27 03:42:28;;;;;;;4.32;1.60;;;;;;;9.65;100.00;98432.28;5076578;28;20020;-39
2024/03/27 03:44:53;;;;;;;4.65;1.40;;;;;;;9.67;100.00;98430.13;5077133;28;20039;-39
2024/03/27 03:47:19;;;;;;;1.90;0.90;;;;;;;9.64;100.00;98419.88;5076544;28;20060;-39
2024/03/27 03:49:45;;;;;;;1.98;0.80;;;;;;;9.71;100.00;98423.03;5076444;28;20316;-39
2024/03/27 03:52:10;;;;;;;2.15;0.70;;;;;;;9.76;100.00;98420.28;5076137;28;20060;-39
2024/03/27 03:54:36;;;;;;;1.77;0.70;;;;;;;9.72;100.00;98405.78;5076674;28;20539;-39
2024/03/27 03:57:01;;;;;;;1.23;0.60;;;;;;;9.78;100.00;98402.75;5076355;28;20473;-39
2024/03/27 03:59:26;;;;;;;0.83;0.63;;;;;;;9.79;100.00;98406.25;5076915;28;20444;-39
2024/03/27 04:01:52;;;;;;;0.50;0.50;;;;;;;9.77;100.00;98394.94;5076279;28;20036;-39
2024/03/27 04:04:17;;;;;;;3.80;0.90;;;;;;;9.69;100.00;98374.75;5076757;28;20274;-39
2024/03/27 04:06:43;;;;;;;1.33;1.10;;;;;;;9.75;100.00;98384.41;5076197;28;20062;-38
2024/03/27 04:09:08;;;;;;;1.00;0.80;;;;;;;9.76;100.00;98369.03;5076396;28;20021;-39
2024/03/27 04:11:34;;;;;;;0.87;0.70;;;;;;;9.72;100.00;98368.00;5076049;28;20028;-39
2024/03/27 04:13:59;;;;;;;1.00;0.80;;;;;;;9.73;100.00;98375.00;5076520;28;20024;-38
2024/03/27 04:16:24;;;;;;;1.27;1.10;;;;;;;9.68;100.00;98369.66;5075681;28;20081;-39
2024/03/27 04:18:49;;;;;;;1.20;1.10;;;;;;;9.67;100.00;98373.44;5076363;28;20048;-38
2024/03/27 04:21:15;;;;;;;1.90;1.00;;;;;;;9.60;100.00;98364.88;5075979;28;20103;-38
2024/03/27 04:23:40;;;;;;;1.40;1.00;;;;;;;9.66;100.00;98377.22;5076430;28;20106;-38
2024/03/27 04:26:06;;;;;;;1.30;1.10;;;;;;;9.51;100.00;98360.09;5075496;28;20173;-39
2024/03/27 04:28:31;;;;;;;1.30;1.20;;;;;;;9.66;100.00;98388.00;5075807;28;20259;-39
2024/03/27 04:30:57;;;;;;;1.20;1.00;;;;;;;9.66;100.00;98388.00;5075487;28;20024;-39
2024/03/27 04:33:22;;;;;;;1.83;1.40;;;;;;;9.68;100.00;98380.44;5076230;28;20036;-39
2024/03/27 04:35:48;;;;;;;1.60;1.50;;;;;;;9.67;100.00;98374.25;5075211;28;20580;-39
2024/03/27 04:38:13;;;;;;;1.37;1.27;;;;;;;9.57;100.00;98368.16;5075213;28;20108;-39
2024/03/27 04:40:39;;;;;;;1.63;1.33;;;;;;;9.68;100.00;98388.56;5075521;28;20036;-39
2024/03/27 04:43:04;;;;;;;1.37;1.17;;;;;;;9.67;100.00;98398.53;5075457;28;20473;-39
2024/03/27 04:45:30;;;;;;;1.60;1.50;;;;;;;9.66;100.00;98393.41;5075689;28;20395;-39
2024/03/27 04:47:55;;;;;;;;;;;;;;;9.72;100.00;98393.09;5075724;28;20350;-39
2024/03/27 04:50:21;;;;;;;1.55;1.45;;;;;;;9.62;100.00;98395.91;5075949;28;19966;-38
2024/03/27 04:52:47;;;;;;;1.42;1.33;;;;;;;9.64;100.00;98404.50;5074952;28;20150;-38
2024/03/27 04:55:12;;;;;;;1.63;1.43;;;;;;;9.64;100.00;98414.50;5075166;28;20135;-38
2024/03/27 04:57:38;;;;;;;1.48;1.38;;;;;;;9.62;100.00;98419.38;5075791;28;20071;-39
2024/03/27 05:00:06;;;;;;;1.93;1.70;;;;;;;9.62;100.00;98416.69;5075236;28;20526;-38
2024/03/27 05:02:31;;;;;;;1.60;1.48;;;;;;;9.57;100.00;98416.72;5074892;28;20627;-38
2024/03/27 05:04:56;;;;;;;2.72;2.08;;;;;;;9.60;100.00;98410.75;5075690;28;20025;-39
2024/03/27 05:07:22;;;;;;;1.77;1.67;;;;;;;9.54;100.00;98416.19;5074995;28;20032;-39
2024/03/27 05:09:47;;;;;;;2.03;1.83;;;;;;;9.58;100.00;98434.50;5075081;28;20064;-39
2024/03/27 05:12:15;;;;;;;2.70;2.20;;;;;;;9.51;100.00;98437.53;5075312;28;20033;-38
2024/03/27 05:14:41;;;;;;;2.70;2.50;;;;;;;9.54;100.00;98462.06;5075360;28;20078;-39
2024/03/27 05:17:07;;;;;;;3.20;2.80;;;;;;;9.51;100.00;98453.72;5074861;28;20465;-39
2024/03/27 05:19:33;;;;;;;2.85;2.47;;;;;;;9.47;100.00;98444.59;5075114;28;20515;-39
2024/03/27 05:21:59;;;;;;;2.70;2.50;;;;;;;9.46;100.00;98441.06;5074739;28;20099;-39
2024/03/27 05:24:24;;;;;;;2.53;2.33;;;;;;;9.37;100.00;98437.38;5075065;28;20465;-39
2024/03/27 05:26:51;;;;;;;2.83;2.53;;;;;;;9.38;100.00;98457.06;5074393;28;20271;-39
2024/03/27 05:29:16;;;;;;;3.22;2.30;;;;;;;9.33;100.00;98457.91;5074327;28;20412;-39
2024/03/27 05:31:48;;;;;;;4.68;2.83;;;;;;;9.30;100.00;98474.63;5074852;28;20024;-39
2024/03/27 05:34:15;;;;;;;2.92;2.67;;;;;;;9.25;100.00;98461.19;5075192;28;20415;-39
2024/03/27 05:36:41;;;;;;;4.70;4.13;;;;;;;9.19;100.00;98473.09;5073193;28;20028;-39
2024/03/27 05:39:06;;;;;;;4.05;3.72;;;;;;;9.19;100.00;98473.09;5074987;28;20024;-39
2024/03/27 05:41:31;;;;;;;4.43;3.77;;;;;;;9.20;100.00;98472.00;5074365;28;20035;-39
2024/03/27 05:43:56;;;;;;;4.47;4.07;;;;;;;9.13;100.00;98466.13;5074037;28;20059;-39
2024/03/27 05:46:22;;;;;;;4.37;3.97;;;;;;;9.19;100.00;98478.50;5073982;28;20044;-39
2024/03/27 05:48:48;;;;;;;4.60;3.70;;;;;;;9.16;100.00;98482.53;5074241;28;20028;-38
2024/03/27 05:51:14;;;;;;;3.97;3.63;;;;;;;9.19;100.00;98490.09;5074834;28;20028;-38
2024/03/27 05:53:39;;;;;;;;;;;;;;;9.27;100.00;98494.06;5074591;28;20028;-38
2024/03/27 05:56:04;;;;;;;4.73;3.83;;;;;;;9.19;100.00;98508.16;5073725;28;19919;-38
2024/03/27 05:58:30;;;;;;;3.72;3.42;;;;;;;9.15;100.00;98509.78;5073698;28;20333;-38
2024/03/27 06:00:55;;;;;;;3.43;2.97;;;;;;;9.20;100.00;98517.84;5074761;28;20020;-38
2024/03/27 06:03:21;;;;;;;2.92;2.67;;;;;;;9.19;100.00;98502.75;5073112;28;20040;-38
2024/03/27 06:05:46;;;;;;;2.92;2.63;;;;;;;9.16;100.00;98506.81;5074725;28;20089;-38
2024/03/27 06:08:12;;;;;;;3.00;2.53;;;;;;;9.17;100.00;98521.09;5073789;28;20433;-38
2024/03/27 06:10:37;;;;;;;2.70;2.50;;;;;;;9.16;100.00;98530.28;5074597;28;20032;-39
2024/03/27 06:13:06;;;;;;;2.90;2.70;;;;;;;9.14;100.00;98530.56;5074280;28;20285;-39
2024/03/27 06:15:32;;;;;;;2.55;2.35;;;;;;;9.12;100.00;98521.13;5073365;28;20021;-39
2024/03/27 06:17:58;;;;;;;2.40;2.17;;;;;;;9.15;100.00;98528.66;5073625;28;20036;-39
2024/03/27 06:20:23;;;;;;;2.20;2.00;;;;;;;9.15;100.00;98531.34;5073083;28;20107;-39
2024/03/27 06:22:50;;;;;;;2.50;2.30;;;;;;;9.15;100.00;98528.66;5073968;28;20162;-39
2024/03/27 06:25:16;;;;;;;3.15;2.47;;;;;;;9.13;100.00;98538.94;5074117;28;20358;-39
2024/03/27 06:27:41;;;;;;;3.90;3.25;;;;;;;9.04;100.00;98536.00;5073329;28;20111;-38
2024/03/27 06:30:08;;;;;;;3.77;3.43;;;;;;;8.93;100.00;98527.16;5072292;28;20052;-39
2024/03/27 06:32:33;;;;;;;4.18;3.70;;;;;;;8.96;100.00;98534.69;5073476;28;20074;-39
2024/03/27 06:35:00;;;;;;;4.18;3.85;;;;;;;8.97;100.00;98535.47;5074208;28;20025;-39
2024/03/27 06:37:25;;;;;;;4.15;3.85;;;;;;;8.94;100.00;98541.44;5073113;28;20104;-39
2024/03/27 06:39:51;;;;;;;5.55;4.72;;;;;;;8.89;100.00;98541.47;5073684;28;20056;-39
2024/03/27 06:42:16;;;;;;;5.63;5.03;;;;;;;8.84;100.00;98554.97;5073952;28;20100;-38
2024/03/27 06:44:42;;;;;;;5.88;5.28;;;;;;;8.73;100.00;98552.28;5073933;28;20044;-39
2024/03/27 06:47:08;;;;;;;6.40;5.80;;;;;;;8.71;100.00;98553.66;5073060;28;20111;-39
2024/03/27 06:49:33;;;;;;;6.20;5.70;;;;;;;8.69;100.00;98555.81;5074168;28;20032;-38
2024/03/27 06:52:02;;;;;;;5.85;5.35;;;;;;;8.68;100.00;98564.97;5073296;28;20024;-39
2024/03/27 06:54:27;;;;;;;5.72;5.22;;;;;;;8.67;100.00;98563.34;5072878;28;20063;-39
2024/03/27 06:56:52;;;;;;;8.97;5.73;;;;;;;8.59;100.00;98555.81;5073328;28;20107;-39
2024/03/27 06:59:18;;;;;;;7.30;5.97;;;;;;;8.62;100.00;98583.03;5073657;28;20259;-41
2024/03/27 07:01:43;;;;;;;6.83;6.10;;;;;;;8.61;100.00;98591.41;5073289;28;20116;-38
2024/03/27 07:04:09;;;;;;;6.57;5.97;;;;;;;8.59;100.00;98590.84;5073018;28;20387;-39
2024/03/27 07:06:34;;;;;;;7.10;6.40;;;;;;;8.57;100.00;98595.72;5073315;28;20032;-39
2024/03/27 07:09:00;;;;;;;8.50;6.20;;;;;;;8.63;100.00;98594.59;5072994;28;20060;-39
2024/03/27 07:11:25;;;;;;;6.47;5.97;;;;;;;8.61;100.00;98600.28;5073114;28;20377;-38
2024/03/27 07:13:50;;;;;;;6.60;6.00;;;;;;;8.60;100.00;98595.19;5073591;28;20078;-38
2024/03/27 07:16:16;;;;;;;7.00;5.93;;;;;;;8.65;100.00;98593.28;5074967;28;20030;-39
2024/03/27 07:18:41;;;;;;;6.97;5.40;;;;;;;8.59;100.00;98586.28;5077660;28;20380;-39
2024/03/27 07:21:07;;;;;;;5.53;5.03;;;;;;;8.66;100.00;98610.25;5077373;28;20029;-39
2024/03/27 07:23:32;;;;;;;4.70;4.30;;;;;;;8.62;100.00;98606.47;5077862;28;20591;-39
2024/03/27 07:25:57;;;;;;;5.05;4.40;;;;;;;8.67;100.00;98609.16;5076595;28;20047;-39
2024/03/27 07:28:23;;;;;;;6.00;4.63;;;;;;;8.72;100.00;98615.34;5077197;28;20067;-38
2024/03/27 07:30:51;;;;;;;4.93;4.20;;;;;;;8.73;100.00;98621.53;5077208;28;20024;-38
2024/03/27 07:33:17;;;;;;;4.75;3.58;;;;;;;8.77;100.00;98634.19;5076725;28;20338;-39
2024/03/27 07:35:43;;;;;;;6.15;3.70;;;;;;;8.79;100.00;98644.72;5077028;28;20119;-39
2024/03/27 07:38:08;;;;;;;4.63;3.13;;;;;;;8.83;100.00;98637.69;5077230;28;20032;-38
2024/03/27 07:40:34;;;;;;;3.25;2.92;;;;;;;8.75;100.00;98622.09;5076758;28;20028;-39
2024/03/27 07:42:59;;;;;;;3.23;2.70;;;;;;;8.84;100.00;98625.84;5076610;28;20024;-39
2024/03/27 07:45:24;;;;;;;2.78;2.33;;;;;;;8.82;100.00;98633.38;5076001;28;20060;-39
2024/03/27 07:47:51;;;;;;;3.30;2.43;;;;;;;8.91;100.00;98637.13;5076529;28;20069;-39
2024/03/27 07:50:17;;;;;;;3.35;2.35;;;;;;;8.89;100.00;98630.41;5076498;28;20135;-39
2024/03/27 07:52:42;;;;;;;3.72;2.60;;;;;;;8.91;100.00;98622.84;5076481;28;20029;-39
2024/03/27 07:55:08;;;;;;;2.85;2.15;;;;;;;8.98;100.00;98628.78;5076835;28;20372;-38
2024/03/27 07:57:34;;;;;;;3.60;2.72;;;;;;;8.98;100.00;98618.00;5076069;28;20020;-39
2024/03/27 07:59:59;;;;;;;3.92;2.72;;;;;;;9.03;100.00;98620.66;5076305;28;20039;-38
2024/03/27 08:02:25;;;;;;;4.10;2.47;;;;;;;9.03;100.00;98629.56;5076001;28;20024;-38
2024/03/27 08:04:50;;;;;;;3.13;2.30;;;;;;;9.06;100.00;98628.19;5076011;28;20028;-39
2024/03/27 08:07:15;;;;;;;2.67;2.17;;;;;;;9.07;100.00;98620.91;5076451;28;20792;-39
2024/03/27 08:09:41;;;;;;;5.20;2.37;;;;;;;9.16;100.00;98619.25;5075979;28;20387;-38
2024/03/27 08:12:07;;;;;;;2.60;2.00;;;;;;;9.20;100.00;98615.72;5076294;28;20545;-39
2024/03/27 08:14:32;;;;;;;4.87;2.30;;;;;;;9.23;100.00;98631.38;5076852;28;20115;-39
2024/03/27 08:16:58;;;;;;;4.97;3.03;;;;;;;9.01;100.00;98602.03;5075999;28;20028;-39
2024/03/27 08:19:23;;;;;;;3.97;2.40;;;;;;;9.17;100.00;98620.84;5076012;28;20024;-39
2024/03/27 08:21:48;;;;;;;3.93;2.60;;;;;;;9.20;100.00;98633.81;5075888;28;20517;-40
2024/03/27 08:24:14;;;;;;;3.43;2.53;;;;;;;9.12;100.00;98618.19;5075913;28;20255;-39
2024/03/27 08:26:39;;;;;;;3.25;2.42;;;;;;;9.16;100.00;98630.03;5075118;28;20024;-39
2024/03/27 08:29:05;;;;;;;4.10;3.00;;;;;;;9.09;100.00;98611.47;5075601;28;20024;-39
2024/03/27 08:31:30;;;;;;;4.13;2.60;;;;;;;9.16;100.00;98619.25;5075744;28;20029;-39
2024/03/27 08:33:55;;;;;;;5.10;2.90;;;;;;;9.14;100.00;98621.44;5075720;28;20464;-39
2024/03/27 08:36:21;;;;;;;6.27;3.17;;;;;;;9.22;100.00;98615.44;5075987;28;20372;-39
2024/03/27 08:38:46;;;;;;;3.87;2.90;;;;;;;9.23;100.00;98623.28;5075675;28;20032;-39
2024/03/27 08:41:11;;;;;;;2.90;2.43;;;;;;;9.27;100.00;98620.81;5075578;28;20116;-39
2024/03/27 08:43:37;;;;;;;3.60;2.23;;;;;;;9.19;100.00;98618.72;5075933;28;20017;-39
2024/03/27 08:46:04;;;;;;;2.67;2.00;;;;;;;9.23;100.00;98633.25;5075772;28;20271;-39
2024/03/27 08:48:29;;;;;;;3.08;2.20;;;;;;;9.27;100.00;98632.44;5075707;28;20032;-39
2024/03/27 08:50:55;;;;;;;3.42;2.10;;;;;;;9.25;100.00;98631.88;5076007;28;20028;-39
2024/03/27 08:53:20;;;;;;;3.10;2.33;;;;;;;9.27;100.00;98635.13;5075638;28;20511;-39
2024/03/27 08:55:45;;;;;;;3.67;2.10;;;;;;;9.22;100.00;98632.47;5074828;28;20102;-39
2024/03/27 08:58:11;;;;;;;3.50;2.23;;;;;;;9.24;100.00;98637.56;5074987;28;20032;-39
2024/03/27 09:00:37;;;;;;;3.57;2.40;;;;;;;9.29;100.00;98648.34;5075509;28;20099;-38
2024/03/27 09:03:04;;;;;;;3.15;2.17;;;;;;;9.24;100.00;98651.06;5075621;28;20078;-38
2024/03/27 09:05:31;;;;;;;4.20;2.80;;;;;;;9.09;100.00;98651.09;5075093;28;20089;-38
2024/03/27 09:07:58;;;;;;;4.05;2.40;;;;;;;9.12;100.00;98677.50;5075275;28;20028;-38
2024/03/27 09:10:25;;;;;;;3.30;2.40;;;;;;;8.97;100.00;98662.97;5074977;28;20112;-39
2024/03/27 09:12:50;;;;;;;3.03;2.03;;;;;;;8.93;100.00;98671.88;5074902;28;20024;-39
2024/03/27 09:15:16;;;;;;;4.07;2.40;;;;;;;8.98;100.00;98688.88;5075158;28;20035;-39
2024/03/27 09:17:42;;;;;;;4.15;2.55;;;;;;;8.84;100.00;98668.16;5075349;28;20266;-39
2024/03/27 09:20:09;;;;;;;4.63;2.30;;;;;;;8.84;100.00;98682.44;5075653;28;20456;-39
2024/03/27 09:22:35;;;;;;;3.15;2.20;;;;;;;8.73;100.00;98678.13;5074925;28;20039;-39
2024/03/27 09:25:00;;;;;;;2.95;2.40;;;;;;;8.80;100.00;98686.75;5075531;28;20032;-39
2024/03/27 09:27:27;;;;;;;4.37;2.90;;;;;;;8.70;100.00;98670.59;5074653;28;20079;-39
2024/03/27 09:29:53;;;;;;;3.88;2.63;;;;;;;8.62;100.00;98671.94;5074539;28;20036;-39
2024/03/27 09:32:20;;;;;;;3.47;2.20;;;;;;;8.65;100.00;98679.50;5074836;28;20085;-39
2024/03/27 09:34:45;;;;;;;;;;;;;;;8.74;100.00;98688.66;5074867;28;20025;-39
2024/03/27 09:37:11;;;;;;;4.40;2.70;;;;;;;8.58;100.00;98683.53;5074987;28;19957;-39
2024/03/27 09:39:36;;;;;;;3.65;2.60;;;;;;;8.60;100.00;98692.16;5073632;28;20499;-39
2024/03/27 09:42:03;;;;;;;3.73;2.33;;;;;;;8.63;100.00;98691.59;5074364;28;20143;-39
2024/03/27 09:44:29;;;;;;;4.03;2.70;;;;;;;8.65;100.00;98684.06;5073977;28;20028;-40
2024/03/27 09:47:00;;;;;;;2.80;2.38;;;;;;;8.67;100.00;98693.47;5074538;28;20030;-38
2024/03/27 09:49:29;;;;;;;3.90;2.58;;;;;;;8.67;100.00;98689.97;5074228;28;20039;-39
2024/03/27 09:51:57;;;;;;;4.03;2.67;;;;;;;8.68;100.00;98705.06;5074155;28;20052;-40
2024/03/27 09:54:26;;;;;;;2.90;2.10;;;;;;;8.71;100.00;98704.53;5073944;28;20044;-39
2024/03/27 09:56:56;;;;;;;3.78;2.67;;;;;;;8.75;100.00;98716.41;5074349;28;20147;-39
2024/03/27 09:59:23;;;;;;;4.00;2.40;;;;;;;8.76;100.00;98718.81;5073779;28;20033;-39
2024/03/27 10:02:05;;;;;;;2.90;2.28;;;;;;;8.75;100.00;98721.78;5073729;28;20102;-39
2024/03/27 10:04:30;;;;;;;3.00;2.33;;;;;;;8.77;100.00;98725.00;5073967;28;20096;-39
2024/03/27 10:06:56;;;;;;;3.70;2.70;;;;;;;8.71;100.00;98726.91;5073832;28;20159;-39
2024/03/27 10:09:22;;;;;;;4.57;2.80;;;;;;;8.67;100.00;98733.91;5073856;28;20035;-38
2024/03/27 10:11:47;;;;;;;3.97;2.92;;;;;;;8.69;100.00;98733.66;5074066;28;20032;-39
2024/03/27 10:14:12;;;;;;;3.50;2.70;;;;;;;8.72;100.00;98731.19;5074293;28;20029;-38
2024/03/27 10:16:38;;;;;;;3.70;2.70;;;;;;;8.79;100.00;98730.16;5073992;28;20456;-39
2024/03/27 10:19:04;;;;;;;3.50;2.70;;;;;;;8.83;100.00;98728.50;5073686;28;20024;-39
2024/03/27 10:21:30;;;;;;;4.72;3.00;;;;;;;8.83;100.00;98725.81;5073349;28;20028;-39
2024/03/27 10:23:55;;;;;;;3.25;2.72;;;;;;;8.87;100.00;98726.88;5073710;28;20098;-38
2024/03/27 10:26:20;;;;;;;4.53;2.95;;;;;;;8.76;100.00;98718.00;5073570;28;20032;-39
2024/03/27 10:28:46;;;;;;;3.87;2.97;;;;;;;8.86;100.00;98728.78;5074233;28;20107;-38
2024/03/27 10:31:11;;;;;;;4.67;3.10;;;;;;;8.86;100.00;98728.78;5073622;28;20032;-39
2024/03/27 10:33:36;;;;;;;4.67;3.30;;;;;;;8.87;100.00;98730.38;5072479;28;20055;-39
2024/03/27 10:36:04;;;;;;;3.97;3.20;;;;;;;8.89;100.00;98730.94;5073593;28;20453;-38
2024/03/27 10:38:31;;;;;;;4.25;3.03;;;;;;;8.90;100.00;98739.84;5074272;28;20024;-38
2024/03/27 10:41:02;;;;;;;4.60;3.53;;;;;;;8.90;100.00;98729.84;5073766;28;20031;-38
2024/03/27 10:43:35;;;;;;;5.63;3.53;;;;;;;9.09;100.00;98748.97;5073520;28;20056;-39
2024/03/27 10:46:02;;;;;;;4.75;3.53;;;;;;;9.18;100.00;98751.94;5073931;28;20032;-39
2024/03/27 10:48:28;;;;;;;3.65;3.10;;;;;;;9.17;100.00;98748.41;5073276;28;20025;-39
2024/03/27 10:50:55;;;;;;;;;;;;;;;9.28;100.00;98749.22;5074181;28;20017;-39
2024/03/27 10:53:21;;;;;;;4.78;3.53;;;;;;;9.12;100.00;98734.13;5073325;28;19931;-39
2024/03/27 10:55:48;;;;;;;4.53;3.80;;;;;;;9.16;100.00;98743.28;5073057;28;20052;-39
2024/03/27 10:58:14;;;;;;;6.25;3.92;;;;;;;9.22;100.00;98742.19;5072991;28;20032;-39
2024/03/27 11:00:40;;;;;;;;;;;;;;;9.38;100.00;98740.28;5073375;28;20058;-39
2024/03/27 11:03:08;;;;;;;5.35;4.10;;;;;;;9.37;100.00;98744.88;5073225;28;19916;-39
2024/03/27 11:05:33;;;;;;;4.95;4.45;;;;;;;9.39;100.00;98733.81;5072962;28;20028;-38
2024/03/27 11:07:59;;;;;;;4.88;4.20;;;;;;;9.50;100.00;98749.66;5073174;28;20031;-39
2024/03/27 11:10:26;;;;;;;4.83;4.20;;;;;;;9.52;100.00;98742.13;5073466;28;20028;-39
2024/03/27 11:12:52;;;;;;;5.20;4.70;;;;;;;9.62;100.00;98743.97;5073654;28;20343;-39
2024/03/27 11:15:17;;;;;;;;;;;;;;;9.73;100.00;98753.66;5073753;28;20052;-39
2024/03/27 11:18:13;;;;;;;7.22;4.90;;;;;;;9.76;100.00;98750.41;5072818;28;19912;-39
2024/03/27 11:20:49;;;;;;;5.40;4.90;;;;;;;9.75;100.00;98753.38;5071752;28;20143;-39
2024/03/27 11:23:14;;;;;;;7.43;5.33;;;;;;;9.75;100.00;98756.88;5073651;28;20028;-39
2024/03/27 11:25:40;;;;;;;5.60;5.00;;;;;;;9.84;100.00;98759.81;5073573;28;20032;-39
2024/03/27 11:28:16;;;;;;;5.65;4.30;;;;;;;9.85;100.00;98750.63;5073217;28;20070;-39